Tiempo atmosférico en la estación meteorológica de Banyalbufar, Illes Balears (60 m.)

Fecha
DESCASC
Temp. máxima en grados centígrados (hora)
DESCASC
Temp. mínima en grados centígrados (hora)
DESCASC
Temp. media en grados centígrados
DESCASC
Racha de viento máxima en m/sg (hora)
DESCASC
Velocidad máxima media en intervalos de 10 minutos(hora)
DESCASC
Precipitaciones diarias en mm
DESCASC
Precipitaciones de 00:00 a 06:00 en mm
DESCASC
Precipitaciones de 06:00 a 12:00 en mm
DESCASC
Precipitaciones de 12:00 a 18:00 en mm
DESCASC
Precipitaciones de 18:00 a 24:00 en mm
DESCASC
23-11-2017 19.7 (23:59) 12.2 (05:00) 16 8.06 (23:50) 4.44 (15:00) 0 0 0 0 0
22-11-2017 21.1 (14:00) 12.3 (03:10) 16.7 7.22 (16:30) 3.61 (16:40) 0 0 0 0 0
21-11-2017 18.8 (13:40) 13.5 (04:30) 16.1 5.28 (00:30) 3.33 (05:00) 0 0 0 0 0
20-11-2017 19.3 (15:00) 10.5 (03:50) 14.9 5.28 (22:50) 3.61 (05:10) 0 0 0 0 0
19-11-2017 18.4 (15:40) 10.9 (00:00) 14.6 5.56 (02:40) 3.61 (02:20) 0 0 0 0 0
18-11-2017 19 (15:20) 11.1 (00:00) 15.1 5.28 (04:40) 3.61 (04:50) 0 0 0 0 0
17-11-2017 19.3 (13:50) 10.1 (00:00) 14.7 5.56 (22:40) 3.61 (22:40) 0 0 0 0 0
16-11-2017 18 (15:10) 10.1 (00:00) 14.1 5.28 (23:40) 3.33 (23:40) 0 0 0 0 0
15-11-2017 16.4 (15:30) 9.5 (00:00) 12.9 8.61 (06:30) 5.28 (05:30) 0 0 0 0 0
14-11-2017 14.3 (01:00) 12.3 (00:00) 13.3 16.94 (00:40) 9.44 (00:10) 0 0 0 0 0
13-11-2017 18.2 (03:20) 10.2 (00:00) 14.2 17.22 (04:40) 12.5 (04:40) 7.6 0.2 6.8 0.6 0
12-11-2017 18.5 (13:20) 13.7 (00:00) 16.1 12.5 (23:59) 6.11 (23:40) 0 0 0 0 0
11-11-2017 17.7 (15:50) 13.4 (00:00) 15.6 11.11 (04:40) 5.56 (05:00) 0 0 0 0 0
10-11-2017 15.2 (15:00) 9.4 (00:00) 12.3 20.28 (07:40) 10.83 (07:40) 15.4 0.8 14.6 0 0
09-11-2017 14.2 (15:20) 9.5 (00:00) 11.8 14.72 (09:20) 9.17 (09:30) 14 4.6 2.2 0 7.2
08-11-2017 16.7 (09:10) 11.6 (00:00) 14.2 12.5 (09:30) 9.17 (09:30) 0 0 0 0 0
07-11-2017 15.6 (16:20) 11.9 (00:00) 13.8 9.44 (00:10) 6.11 (00:10) 0 0 0 0 0
06-11-2017 16.3 (00:00) 13.6 (00:00) 14.9 19.44 (08:40) 11.39 (09:40) 0 0 0 0 0
05-11-2017 19.8 (00:20) 16.3 (00:00) 18 16.67 (23:40) 9.72 (06:30) 0 0 0 0 0
04-11-2017 22.1 (13:40) 16.7 (00:00) 19.4 9.17 (23:20) 5 (23:30) 1.8 0 0 0 1.8
03-11-2017 21.1 (15:20) 14 (00:00) 17.6 5.28 (00:40) 3.33 (08:40) 0 0 0 0 0
02-11-2017 21.6 (13:10) 14.5 (07:20) 18.1 4.44 (05:40) 2.78 (22:20) 0 0 0 0 0
01-11-2017 21.2 (15:10) 14.5 (00:00) 17.9 4.72 (19:30) 3.06 (19:30) 0 0 0 0 0
31-10-2017 19.6 (11:30) 14.5 (00:00) 17.1 8.06 (15:40) 4.17 (16:30) 0 0 0 0 0
30-10-2017 20 (16:30) 14.6 (00:00) 17.3 4.72 (03:40) 3.61 (04:50) 0 0 0 0 0
29-10-2017 21.3 (12:10) 15.2 (00:00) 18.2 5.83 (00:40) 3.06 (00:10) 0 0 0 0 0
28-10-2017 22.1 (17:20) 16.5 (00:00) 19.3 7.5 (09:50) 3.89 (09:50) 0.8 0 0.8 0 0
27-10-2017 22.2 (16:10) 15.5 (00:00) 18.9 6.39 (14:50) 3.61 (14:20) 0 0 0 0 0
26-10-2017 24.5 (17:10) 15.9 (00:00) 20.2 5 (19:40) 3.61 (21:00) 0 0 0 0 0

Gráficas

Temp. máximas Temp. mínimas Temp. medias Precipitaciones Rachas de viento máximas Velocidades máximas media en intervalos de 10 minutos

Datos horarios

Fecha y hora oficial Temperatura (ºC) Velocidad del viento (km/h) Dirección del viento Racha (km/h) Dirección de racha Precipitación (mm) Presión (hPa) Tendencia (hPa) Humedad (%)
2017-11-24 23:00:00 22.4 15 Sudoeste 34 Sur 0 -- -- 19
2017-11-24 22:00:00 22 10 Sudoeste 22 Sur 0 -- -- 22
2017-11-24 21:00:00 19 6 Sudoeste 19 Sudoeste 0 -- -- 40
2017-11-24 20:00:00 19 8 Sudoeste 12 Sur 0 -- -- 42
2017-11-24 19:00:00 17.7 6 Sudeste 10 Sudeste 0 -- -- 50
2017-11-24 18:00:00 17.8 6 Sur 24 Nordeste 0 -- -- 57
2017-11-24 17:00:00 22.5 8 Sudoeste 24 Sudoeste 0 -- -- 27
2017-11-24 16:00:00 21.1 6 Sudoeste 19 Sudoeste 0 -- -- 55
2017-11-24 15:00:00 22.9 9 Sudoeste 21 Sudoeste 0 -- -- 34
2017-11-24 14:00:00 23.4 10 Oeste 19 Sudoeste 0 -- -- 34
2017-11-24 13:00:00 21.8 8 Sudoeste 20 Sur 0 -- -- 36
2017-11-24 12:00:00 21.7 9 Oeste 19 Oeste 0 -- -- 41
2017-11-24 11:00:00 19.3 3 Sur 9 Sur 0 -- -- 45
2017-11-24 10:00:00 18.4 4 Sudeste 13 Sudoeste 0 -- -- 50
2017-11-24 09:00:00 19.7 6 Sudoeste 18 Sur 0 -- -- 40
2017-11-24 08:00:00 16.7 8 Sur 15 Oeste 0 -- -- 47
2017-11-24 07:00:00 19.2 8 Sudoeste 20 Sudoeste 0 -- -- 42
2017-11-24 06:00:00 19.4 8 Sudoeste 20 Sudoeste 0 -- -- 47
2017-11-24 05:00:00 18.2 7 Sudoeste 15 Oeste 0 -- -- 49
2017-11-24 04:00:00 18.8 6 Sudoeste 26 Sudoeste 0 -- -- 39
2017-11-24 03:00:00 18.5 10 Sudoeste 18 Sudoeste 0 -- -- 38
2017-11-24 02:00:00 18.6 11 Sur 22 Sur 0 -- -- 36
2017-11-24 01:00:00 18.7 11 Sur 33 Sudoeste 0 -- -- 33
2017-11-24 00:00:00 19.7 15 Sudoeste 29 Sudoeste 0 -- -- 30
2017-11-23 23:00:00 16.9 13 Sudoeste 20 Sudoeste 0 -- -- 41
2017-11-23 22:00:00 16 11 Sur 15 Sur 0 -- -- 47
2017-11-23 21:00:00 16.2 5 Sudoeste 16 Sudoeste 0 -- -- 46
2017-11-23 20:00:00 14.1 9 Sur 15 Sur 0 -- -- 55
2017-11-23 19:00:00 13.9 9 Sur 15 Sur 0 -- -- 67
2017-11-23 18:00:00 13.1 12 Sur 15 Sur 0 -- -- 77
2017-11-23 17:00:00 14.8 6 Sur 16 Oeste 0 -- -- 84
2017-11-23 16:00:00 18.2 11 Oeste 28 Oeste 0 -- -- 81
2017-11-23 15:00:00 18.4 16 Oeste 27 Oeste 0 -- -- 81
2017-11-23 14:00:00 19.1 8 Oeste 19 Sudoeste 0 -- -- 80
2017-11-23 13:00:00 19.1 0 Calma 21 Sudoeste 0 -- -- 80
2017-11-23 12:00:00 18.6 3 Sudeste 8 Sur 0 -- -- 72
2017-11-23 11:00:00 15.8 8 Sur 14 Sur 0 -- -- 73
2017-11-23 10:00:00 14.6 8 Sur 15 Sur 0 -- -- 72
2017-11-23 09:00:00 12.8 10 Sur 17 Sur 0 -- -- 75
2017-11-23 08:00:00 12.5 8 Sur 14 Sur 0 -- -- 71
2017-11-23 07:00:00 12.8 8 Sur 19 Sur 0 -- -- 63
2017-11-23 06:00:00 12.2 13 Sur 15 Sur 0 -- -- 58
2017-11-23 05:00:00 12.2 7 Sur 13 Sudoeste 0 -- -- 63
2017-11-23 04:00:00 13.3 10 Sudeste 16 Sur 0 -- -- 68
2017-11-23 03:00:00 13 8 Sur 14 Sur 0 -- -- 68
2017-11-23 02:00:00 13.3 7 Sur 14 Sur 0 -- -- 64
2017-11-23 01:00:00 13.6 6 Sur 13 Sudoeste 0 -- -- 66
2017-11-23 00:00:00 14.3 6 Sur 14 Sur 0 -- -- 67
2017-11-22 23:00:00 14.8 6 Sur 12 Sur 0 -- -- 61
2017-11-22 22:00:00 15.6 3 Norte 10 Sudeste 0 -- -- 59
2017-11-22 21:00:00 13.7 5 Sur 14 Sur 0 -- -- 64
2017-11-22 20:00:00 15.6 9 Sur 24 Sudoeste 0 -- -- 64
2017-11-22 19:00:00 15.6 5 Sudeste 12 Sur 0 -- -- 65
2017-11-22 18:00:00 15.4 7 Sur 24 Sudoeste 0 -- -- 65
2017-11-22 17:00:00 16.3 12 Sur 26 Sudoeste 0 -- -- 69
2017-11-22 16:00:00 18 7 Sudoeste 14 Oeste 0 -- -- 69
2017-11-22 15:00:00 19.4 2 Sudoeste 8 Nordeste 0 -- -- 66
2017-11-22 14:00:00 21.1 4 Sudoeste 9 Nordeste 0 -- -- 63
2017-11-22 13:00:00 19.8 3 Oeste 11 Sudoeste 0 -- -- 62
2017-11-22 12:00:00 18.9 4 Sudoeste 16 Sur 0 -- -- 64
2017-11-22 11:00:00 17.3 5 Sudoeste 13 Sur 0 -- -- 76
2017-11-22 10:00:00 15 5 Sur 15 Sudoeste 0 -- -- 80
2017-11-22 09:00:00 14.2 6 Sur 16 Este 0 -- -- 80
2017-11-22 08:00:00 14.1 6 Sudeste 23 Sur 0 -- -- 80
2017-11-22 07:00:00 13.8 7 Sudeste 12 Sur 0 -- -- 85
2017-11-22 06:00:00 12.8 10 Sur 13 Sur 0 -- -- 87
2017-11-22 05:00:00 12.9 8 Sudeste 12 Sur 0 -- -- 89
2017-11-22 04:00:00 12.5 8 Sur 12 Sur 0 -- -- 87
2017-11-22 03:00:00 12.7 5 Sur 12 Sur 0 -- -- 90
2017-11-22 02:00:00 13.6 5 Sudeste 13 Sur 0 -- -- 91
2017-11-22 01:00:00 14 6 Sudeste 10 Sudeste 0 -- -- 89
2017-11-22 00:00:00 14.4 6 Sudeste 10 Sudeste 0 -- -- 88
2017-11-21 23:00:00 14.3 6 Sudeste 14 Sur 0 -- -- 89
2017-11-21 22:00:00 13.7 6 Sur 11 Sudeste 0 -- -- 92
2017-11-21 21:00:00 14.2 6 Sudeste 13 Sur 0 -- -- 93
2017-11-21 20:00:00 14.1 6 Sur 12 Sur 0 -- -- 96
2017-11-21 19:00:00 14 5 Sur 12 Sur 0 -- -- 96
2017-11-21 18:00:00 14.5 7 Sur 12 Sur 0 -- -- 94
2017-11-21 17:00:00 15.5 6 Sur 12 Oeste 0 -- -- 90
2017-11-21 16:00:00 17.3 7 Sudoeste 17 Sudoeste 0 -- -- 87
2017-11-21 15:00:00 17.5 7 Sudoeste 14 Sudoeste 0 -- -- 85
2017-11-21 14:00:00 18.4 8 Oeste 18 Oeste 0 -- -- 82
2017-11-21 13:00:00 18.3 8 Oeste 18 Oeste 0 -- -- 81
2017-11-21 12:00:00 18.5 5 Oeste 10 Oeste 0 -- -- 81
2017-11-21 11:00:00 17.4 5 Sudoeste 13 Sur 0 -- -- 88
2017-11-21 10:00:00 15.1 9 Sur 17 Sudoeste 0 -- -- 89
2017-11-21 09:00:00 14.8 8 Sudoeste 16 Sudoeste 0 -- -- 95
2017-11-21 08:00:00 14 10 Sur 19 Sudoeste 0 -- -- 95
2017-11-21 07:00:00 13.7 11 Sur 17 Sur 0 -- -- 95
2017-11-21 06:00:00 13.5 11 Sur 17 Sur 0 -- -- 94
2017-11-21 05:00:00 13.7 12 Sur 15 Sudoeste 0 -- -- 97
2017-11-21 04:00:00 13.8 11 Sur 15 Sur 0 -- -- 96
2017-11-21 03:00:00 14.2 10 Sur 15 Sudoeste 0 -- -- 94
2017-11-21 02:00:00 14.9 10 Sudoeste 15 Sudoeste 0 -- -- 94
2017-11-21 01:00:00 14.6 11 Sur 19 Sudoeste 0 -- -- 93
2017-11-21 00:00:00 15.2 10 Sudoeste 19 Sudoeste 0 -- -- 94
2017-11-20 23:00:00 14.5 11 Sur 19 Sudoeste 0 -- -- 94
2017-11-20 22:00:00 13.7 10 Sur 17 Sudoeste 0 -- -- 94
2017-11-20 21:00:00 13.6 12 Sur 16 Sur 0 -- -- 93
2017-11-20 20:00:00 13.4 11 Sur 17 Sur 0 -- -- 93
2017-11-20 19:00:00 13.7 12 Sur 16 Sudoeste 0 -- -- 95
2017-11-20 18:00:00 13.3 9 Sur 13 Sur 0 -- -- 93
2017-11-20 17:00:00 14.1 7 Sur 12 Sur 0 -- -- 86
2017-11-20 16:00:00 16.8 8 Sur 10 Sur 0 -- -- 78
2017-11-20 15:00:00 19.3 3 Sudoeste 10 Noroeste 0 -- -- 75
2017-11-20 14:00:00 17.9 5 Noroeste 13 Oeste 0 -- -- 76
2017-11-20 13:00:00 18 5 Sudoeste 10 Oeste 0 -- -- 75
2017-11-20 12:00:00 17.5 3 Sur 8 Sur 0 -- -- 79
2017-11-20 11:00:00 16 5 Sur 13 Sur 0 -- -- 87
2017-11-20 10:00:00 13.4 10 Sur 14 Sur 0 -- -- 94
2017-11-20 09:00:00 11.8 11 Sur 18 Sur 0 -- -- 96
2017-11-20 08:00:00 11.1 11 Sur 16 Sur 0 -- -- 94
2017-11-20 07:00:00 11 12 Sur 15 Sur 0 -- -- 91
2017-11-20 06:00:00 11.1 11 Sur 15 Sur 0 -- -- 86
2017-11-20 05:00:00 10.7 12 Sur 18 Sur 0 -- -- 81
2017-11-20 04:00:00 10.6 12 Sur 15 Sur 0 -- -- 82
2017-11-20 03:00:00 10.8 10 Sur 18 Sur 0 -- -- 81
2017-11-20 02:00:00 10.7 12 Sur 17 Sur 0 -- -- 78
2017-11-20 01:00:00 10.8 12 Sur 18 Sur 0 -- -- 82
2017-11-20 00:00:00 11 8 Sur 13 Sur 0 -- -- 87
2017-11-19 23:00:00 12.3 8 Sur 10 Sur 0 -- -- 89
2017-11-19 22:00:00 11.8 7 Sur 13 Sur 0 -- -- 92
2017-11-19 21:00:00 11.3 10 Sur 14 Sur 0 -- -- 92
2017-11-19 20:00:00 12.1 6 Sur 10 Sur 0 -- -- 90
2017-11-19 19:00:00 12.9 7 Sur 10 Sur 0 -- -- 88
2017-11-19 18:00:00 13.6 7 Sur 10 Sur 0 -- -- 84
2017-11-19 17:00:00 14.6 4 Sur 9 Sur 0 -- -- 81
2017-11-19 16:00:00 17.4 6 Sur 9 Sur 0 -- -- 75
2017-11-19 15:00:00 18 4 Norte 10 Norte 0 -- -- 74
2017-11-19 14:00:00 18.2 5 Noroeste 10 Noroeste 0 -- -- 73
2017-11-19 13:00:00 17.2 7 Norte 12 Norte 0 -- -- 77
2017-11-19 12:00:00 17.4 3 Sudoeste 14 Noroeste 0 -- -- 80
2017-11-19 11:00:00 16.5 6 Noroeste 17 Oeste 0 -- -- 86
2017-11-19 10:00:00 15.8 5 Sudoeste 9 Sudoeste 0 -- -- 98
2017-11-19 09:00:00 14.3 8 Sur 11 Sur 0 -- -- 100
2017-11-19 08:00:00 13.5 10 Sur 13 Sur 0 -- -- 100
2017-11-19 07:00:00 13.1 12 Sur 14 Sur 0 -- -- 100
2017-11-19 06:00:00 13.5 10 Sur 14 Sur 0 -- -- 99
2017-11-19 05:00:00 13.6 9 Sur 12 Sur 0 -- -- 96
2017-11-19 04:00:00 15 9 Sudoeste 18 Sudoeste 0 -- -- 95
2017-11-19 03:00:00 14.5 11 Sudoeste 20 Sur 0 -- -- 95
2017-11-19 02:00:00 13.9 12 Sudoeste 17 Sur 0 -- -- 96
2017-11-19 01:00:00 14.3 12 Sudoeste 17 Sudoeste 0 -- -- 96
2017-11-19 00:00:00 13.9 12 Sur 15 Sur 0 -- -- 95
2017-11-18 23:00:00 13.2 12 Sur 15 Sur 0 -- -- 93
2017-11-18 22:00:00 13.1 12 Sur 15 Sudoeste 0 -- -- 93
2017-11-18 21:00:00 12.9 12 Sur 16 Sur 0 -- -- 93
2017-11-18 20:00:00 12.3 12 Sur 15 Sur 0 -- -- 92
2017-11-18 19:00:00 12.7 11 Sur 14 Sur 0 -- -- 92
2017-11-18 18:00:00 13.6 7 Sur 13 Sur 0 -- -- 90
2017-11-18 17:00:00 14.3 7 Sur 14 Sur 0 -- -- 85
2017-11-18 16:00:00 16.8 10 Sur 12 Sur 0 -- -- 79
2017-11-18 15:00:00 18.6 3 Noroeste 8 Oeste 0 -- -- 78
2017-11-18 14:00:00 18.6 3 Oeste 5 Oeste 0 -- -- 75
2017-11-18 13:00:00 17.8 3 Oeste 7 Sudoeste 0 -- -- 76
2017-11-18 12:00:00 17.4 4 Sur 11 Sur 0 -- -- 79
2017-11-18 11:00:00 14.7 9 Sur 14 Sur 0 -- -- 82
2017-11-18 10:00:00 12.9 11 Sur 17 Sur 0 -- -- 87
2017-11-18 09:00:00 11.9 8 Sur 12 Sur 0 -- -- 94
2017-11-18 08:00:00 12.4 8 Sur 12 Sur 0 -- -- 99
2017-11-18 07:00:00 11.7 7 Sur 15 Sur 0 -- -- 97
2017-11-18 06:00:00 11.6 12 Sur 18 Sur 0 -- -- 95
2017-11-18 05:00:00 11.5 13 Sur 19 Sur 0 -- -- 93
2017-11-18 04:00:00 11.5 12 Sur 18 Sur 0 -- -- 88
2017-11-18 03:00:00 11.6 11 Sur 15 Sur 0 -- -- 85
2017-11-18 02:00:00 11.5 11 Sur 14 Sur 0 -- -- 80
2017-11-18 01:00:00 11.3 9 Sur 16 Sur 0 -- -- 81
2017-11-18 00:00:00 11.2 10 Sur 18 Sur 0 -- -- 86
2017-11-17 23:00:00 11.1 11 Sur 20 Sur 0 -- -- 93
2017-11-17 22:00:00 11.4 12 Sur 14 Sur 0 -- -- 94
2017-11-17 21:00:00 11.5 10 Sur 14 Sur 0 -- -- 94
2017-11-17 20:00:00 12.5 6 Sur 10 Sur 0 -- -- 90
2017-11-17 19:00:00 13.4 8 Sur 11 Sur 0 -- -- 89
2017-11-17 18:00:00 13.4 8 Sur 10 Sur 0 -- -- 87
2017-11-17 17:00:00 13.5 6 Sur 15 Sur 0 -- -- 82
2017-11-17 16:00:00 15.9 10 Sur 13 Sur 0 -- -- 76
2017-11-17 15:00:00 18.4 6 Sur 10 Sur 0 -- -- 69
2017-11-17 14:00:00 18.9 3 Noroeste 6 Sudeste 0 -- -- 67
2017-11-17 13:00:00 17.4 3 Norte 6 Sudeste 0 -- -- 71
2017-11-17 12:00:00 17.7 2 Sudeste 9 Sudeste 0 -- -- 76
2017-11-17 11:00:00 15.9 7 Sur 14 Sur 0 -- -- 83
2017-11-17 10:00:00 14.2 8 Sur 13 Sur 0 -- -- 89
2017-11-17 09:00:00 12.6 8 Sur 12 Sur 0 -- -- 92
2017-11-17 08:00:00 12 8 Sur 13 Sur 0 -- -- 93
2017-11-17 07:00:00 12 8 Sur 17 Sur 0 -- -- 94
2017-11-17 06:00:00 11.3 8 Sur 13 Sur 0 -- -- 95
2017-11-17 05:00:00 11.1 6 Sur 13 Sur 0 -- -- 92
2017-11-17 04:00:00 10.9 9 Sur 13 Sur 0 -- -- 86
2017-11-17 03:00:00 10.6 10 Sur 17 Sur 0 -- -- 83
2017-11-17 02:00:00 10.3 11 Sur 15 Sur 0 -- -- 81
2017-11-17 01:00:00 10.1 12 Sur 15 Sur 0 -- -- 78
2017-11-17 00:00:00 10.1 11 Sur 19 Sur 0 -- -- 77
2017-11-16 23:00:00 10.6 8 Sur 12 Sur 0 -- -- 84
2017-11-16 22:00:00 11.9 8 Sur 10 Sur 0 -- -- 87
2017-11-16 21:00:00 12 8 Sur 13 Sur 0 -- -- 85
2017-11-16 20:00:00 11.3 8 Sur 12 Sudeste 0 -- -- 86
2017-11-16 19:00:00 12.5 9 Sur 12 Sur 0 -- -- 88
2017-11-16 18:00:00 12.8 8 Sur 13 Sur 0 -- -- 84
2017-11-16 17:00:00 12.9 8 Sur 13 Sudoeste 0 -- -- 81
2017-11-16 16:00:00 15.7 8 Sur 12 Sur 0 -- -- 73
2017-11-16 15:00:00 17.9 3 Sudoeste 10 Nordeste 0 -- -- 67
2017-11-16 14:00:00 17 5 Nordeste 10 Nordeste 0 -- -- 68
2017-11-16 13:00:00 16.6 5 Nordeste 8 Nordeste 0 -- -- 67
2017-11-16 12:00:00 16.6 4 Nordeste 12 Sur 0 -- -- 66
2017-11-16 11:00:00 14 6 Sur 14 Sur 0 -- -- 75
2017-11-16 10:00:00 12.8 5 Sur 12 Sur 0 -- -- 79
2017-11-16 09:00:00 12 6 Sur 13 Este 0 -- -- 86
2017-11-16 08:00:00 12.3 8 Sur 12 Sur 0 -- -- 87
2017-11-16 07:00:00 11.9 9 Sur 12 Sudeste 0 -- -- 87
2017-11-16 06:00:00 11.9 8 Sur 10 Sudeste 0 -- -- 89
2017-11-16 05:00:00 11 6 Sur 12 Sur 0 -- -- 92
2017-11-16 04:00:00 11.2 8 Sur 14 Sur 0 -- -- 90
2017-11-16 03:00:00 11.4 10 Sur 13 Sur 0 -- -- 88
2017-11-16 02:00:00 11.3 9 Sudoeste 12 Sur 0 -- -- 85
2017-11-16 01:00:00 11.4 9 Sur 12 Sur 0 -- -- 83
2017-11-16 00:00:00 11.3 8 Sur 13 Sur 0 -- -- 82
2017-11-15 23:00:00 10.5 9 Sur 14 Sur 0 -- -- 77
2017-11-15 22:00:00 10.1 9 Sur 15 Sur 0 -- -- 62
2017-11-15 21:00:00 10 6 Sur 10 Sur 0 -- -- 71
2017-11-15 20:00:00 10.2 6 Sur 10 Sur 0 -- -- 79
2017-11-15 19:00:00 10.1 8 Sur 11 Sur 0 -- -- 80
2017-11-15 18:00:00 10.3 8 Sur 13 Sur 0 -- -- 79
2017-11-15 17:00:00 11.9 6 Sur 12 Sur 0 -- -- 75
2017-11-15 16:00:00 15.9 3 Sudoeste 11 Noroeste 0 -- -- 60
2017-11-15 15:00:00 16 6 Norte 16 Noroeste 0 -- -- 60
2017-11-15 14:00:00 15.7 10 Norte 23 Norte 0 -- -- 63
2017-11-15 13:00:00 14.8 13 Noroeste 23 Noroeste 0 -- -- 66
2017-11-15 12:00:00 14.5 12 Noroeste 25 Noroeste 0 -- -- 67
2017-11-15 11:00:00 14.7 14 Norte 26 Norte 0 -- -- 66
2017-11-15 10:00:00 14.6 13 Norte 25 Norte 0 -- -- 65
2017-11-15 09:00:00 14.4 14 Noroeste 26 Norte 0 -- -- 63
2017-11-15 08:00:00 14.2 13 Noroeste 29 Noroeste 0 -- -- 58
2017-11-15 07:00:00 14 18 Noroeste 31 Norte 0 -- -- 62
2017-11-15 06:00:00 13.8 12 Noroeste 29 Noroeste 0 -- -- 62
2017-11-15 05:00:00 13.7 14 Noroeste 27 Norte 0 -- -- 54
2017-11-15 04:00:00 13.9 12 Noroeste 22 Norte 0 -- -- 60
2017-11-15 03:00:00 10.7 10 Sur 13 Sur 0 -- -- 75
2017-11-15 02:00:00 10.9 8 Sudeste 15 Sudeste 0 -- -- 71
2017-11-15 01:00:00 11.9 8 Sudeste 27 Este 0 -- -- 62
2017-11-15 00:00:00 12.6 8 Este 33 Nordeste 0 -- -- 60
2017-11-14 23:00:00 12.8 11 Este 31 Este 0 -- -- 62
2017-11-14 22:00:00 12.9 18 Nordeste 39 Nordeste 0 -- -- 58
2017-11-14 21:00:00 12.9 17 Nordeste 47 Nordeste 0 -- -- 62
2017-11-14 20:00:00 12.9 24 Nordeste 40 Nordeste 0 -- -- 62
2017-11-14 19:00:00 12.6 19 Nordeste 38 Nordeste 0 -- -- 63
2017-11-14 18:00:00 12.5 22 Nordeste 42 Nordeste 0 -- -- 61
2017-11-14 17:00:00 12.3 19 Nordeste 45 Nordeste 0 -- -- 58
2017-11-14 16:00:00 12.6 29 Nordeste 50 Nordeste 0 -- -- 60
2017-11-14 15:00:00 12.7 26 Nordeste 48 Nordeste 0 -- -- 56
2017-11-14 14:00:00 12.7 28 Nordeste 51 Nordeste 0 -- -- 56
2017-11-14 13:00:00 12.9 27 Nordeste 53 Nordeste 0 -- -- 54
2017-11-14 12:00:00 12.9 27 Nordeste 51 Nordeste 0 -- -- 54
2017-11-14 11:00:00 12.9 31 Nordeste 54 Nordeste 0 -- -- 53
2017-11-14 10:00:00 13.4 32 Nordeste 54 Nordeste 0 -- -- 55
2017-11-14 09:00:00 13.7 21 Norte 46 Norte 0 -- -- 65
2017-11-14 08:00:00 14.1 17 Este 37 Sudeste 0 -- -- 56
2017-11-14 07:00:00 13.1 21 Este 45 Este 0 -- -- 53
2017-11-14 06:00:00 12.9 17 Este 53 Nordeste 0 -- -- 49
2017-11-14 05:00:00 14 18 Norte 40 Norte 0 -- -- 55
2017-11-14 04:00:00 14.2 23 Norte 43 Norte 0 -- -- 54
2017-11-14 03:00:00 14.1 28 Norte 43 Norte 0 -- -- 58
2017-11-14 02:00:00 14 31 Norte 49 Norte 0 -- -- 62
2017-11-14 01:00:00 14.3 32 Norte 61 Noroeste 0 -- -- 56
2017-11-14 00:00:00 14.2 35 Norte 58 Noroeste 0 -- -- 57
2017-11-13 23:00:00 15.1 33 Norte 57 Noroeste 0 -- -- 47
2017-11-13 22:00:00 15 42 Norte 57 Norte 0 -- -- 53
2017-11-13 21:00:00 15.7 33 Norte 51 Noroeste 0 -- -- 39
2017-11-13 20:00:00 15.7 30 Norte 54 Norte 0 -- -- 37
2017-11-13 19:00:00 15.8 32 Norte 59 Noroeste 0 -- -- 40
2017-11-13 18:00:00 15.7 30 Norte 46 Norte 0 -- -- 41
2017-11-13 17:00:00 15.5 25 Norte 51 Norte 0 -- -- 48
2017-11-13 16:00:00 15.7 28 Norte 45 Norte 0 -- -- 49
2017-11-13 15:00:00 14.3 15 Noroeste 39 Nordeste 0 -- -- 71
2017-11-13 14:00:00 14.8 18 Norte 57 Norte 0 -- -- 57
2017-11-13 13:00:00 10.5 12 Sudeste 53 Norte 0.6 -- -- 79
2017-11-13 12:00:00 10.7 9 Sudeste 34 Sudeste 1.8 -- -- 91
2017-11-13 11:00:00 10.2 10 Este 34 Sudeste 2.8 -- -- 94
2017-11-13 10:00:00 11.3 14 Este 31 Este 1.2 -- -- 93
2017-11-13 09:00:00 11.8 6 Sudeste 14 Sudeste 0.8 -- -- 94
2017-11-13 08:00:00 11.9 5 Sudeste 38 Nordeste 0.2 -- -- 90
2017-11-13 07:00:00 13.4 14 Nordeste 43 Nordeste 0 -- -- 82
2017-11-13 06:00:00 13.1 23 Nordeste 55 Noroeste 0.2 -- -- 84
2017-11-13 05:00:00 17.2 40 Norte 62 Noroeste 0 -- -- 73
2017-11-13 04:00:00 17.7 37 Norte 57 Noroeste 0 -- -- 69
2017-11-13 03:00:00 17.8 12 Noroeste 37 Noroeste 0 -- -- 72
2017-11-13 02:00:00 18.1 25 Noroeste 51 Norte 0 -- -- 70
2017-11-13 01:00:00 17.9 24 Noroeste 47 Noroeste 0 -- -- 69
2017-11-13 00:00:00 18 22 Noroeste 45 Noroeste 0 -- -- 69
2017-11-12 23:00:00 17.4 12 Oeste 28 Oeste 0 -- -- 77
2017-11-12 22:00:00 16.6 12 Sudoeste 29 Sur 0 -- -- 76
2017-11-12 21:00:00 15.8 10 Sudoeste 22 Sudoeste 0 -- -- 76
2017-11-12 20:00:00 15.7 13 Sudoeste 26 Sur 0 -- -- 76
2017-11-12 19:00:00 15.2 13 Sur 26 Sudoeste 0 -- -- 72
2017-11-12 18:00:00 14.3 10 Sudoeste 15 Sudoeste 0 -- -- 82
2017-11-12 17:00:00 14.5 9 Sur 13 Sur 0 -- -- 80
2017-11-12 16:00:00 17.7 8 Noroeste 24 Norte 0 -- -- 67
2017-11-12 15:00:00 18.2 7 Noroeste 27 Noroeste 0 -- -- 68
2017-11-12 14:00:00 17.4 18 Norte 25 Norte 0 -- -- 75
2017-11-12 13:00:00 17.5 9 Noroeste 19 Norte 0 -- -- 71
2017-11-12 12:00:00 17.1 7 Norte 23 Norte 0 -- -- 77
2017-11-12 11:00:00 16.9 12 Norte 21 Noroeste 0 -- -- 79
2017-11-12 10:00:00 16.3 4 Oeste 21 Noroeste 0 -- -- 80
2017-11-12 09:00:00 16.5 10 Noroeste 22 Norte 0 -- -- 79
2017-11-12 08:00:00 15.8 4 Sudoeste 21 Noroeste 0 -- -- 79
2017-11-12 07:00:00 16.8 13 Noroeste 23 Noroeste 0 -- -- 74
2017-11-12 06:00:00 16.8 11 Noroeste 26 Norte 0 -- -- 78
2017-11-12 05:00:00 16.9 13 Norte 23 Norte 0 -- -- 78
2017-11-12 04:00:00 16.5 6 Noroeste 18 Norte 0 -- -- 78
2017-11-12 03:00:00 16.8 10 Norte 21 Norte 0 -- -- 78
2017-11-12 02:00:00 17.5 14 Norte 22 Norte 0 -- -- 80
2017-11-12 01:00:00 17.6 10 Noroeste 20 Noroeste 0 -- -- 77
2017-11-12 00:00:00 16.1 9 Sudoeste 20 Sur 0 -- -- 85
2017-11-11 23:00:00 15.3 11 Sudoeste 18 Sudoeste 0 -- -- 89
2017-11-11 22:00:00 15 11 Sudoeste 21 Sudoeste 0 -- -- 90
2017-11-11 21:00:00 14.8 12 Sur 19 Sur 0 -- -- 91
2017-11-11 20:00:00 13.8 12 Sur 19 Sur 0 -- -- 91
2017-11-11 19:00:00 13.8 11 Sur 15 Sur 0 -- -- 93
2017-11-11 18:00:00 14.1 10 Sur 13 Sur 0 -- -- 87
2017-11-11 17:00:00 16.4 4 Sudoeste 8 Sur 0 -- -- 81
2017-11-11 16:00:00 17.7 0 Calma 9 Noroeste 0 -- -- 75
2017-11-11 15:00:00 17.4 6 Noroeste 16 Noroeste 0 -- -- 77
2017-11-11 14:00:00 17 12 Norte 22 Noroeste 0 -- -- 78
2017-11-11 13:00:00 17 8 Noroeste 21 Norte 0 -- -- 80
2017-11-11 12:00:00 16.9 11 Norte 22 Norte 0 -- -- 77
2017-11-11 11:00:00 17 7 Noroeste 20 Norte 0 -- -- 80
2017-11-11 10:00:00 16.7 12 Norte 21 Noroeste 0 -- -- 79
2017-11-11 09:00:00 16.3 8 Noroeste 21 Norte 0 -- -- 80
2017-11-11 08:00:00 16.2 14 Norte 28 Noroeste 0 -- -- 81
2017-11-11 07:00:00 16.2 19 Norte 30 Noroeste 0 -- -- 78
2017-11-11 06:00:00 16.1 12 Noroeste 29 Noroeste 0 -- -- 79
2017-11-11 05:00:00 16.2 20 Norte 40 Oeste 0 -- -- 77
2017-11-11 04:00:00 16.4 13 Noroeste 30 Noroeste 0 -- -- 73
2017-11-11 03:00:00 15.8 10 Noroeste 25 Oeste 0 -- -- 68
2017-11-11 02:00:00 15.1 8 Sudoeste 21 Sudoeste 0 -- -- 71
2017-11-11 01:00:00 14.7 10 Sudoeste 24 Sur 0 -- -- 77
2017-11-11 00:00:00 13.4 14 Sudoeste 19 Sur 0 -- -- 82
2017-11-10 23:00:00 11.1 12 Sur 19 Sur 0 -- -- 85
2017-11-10 22:00:00 11.3 12 Sur 17 Sur 0 -- -- 82
2017-11-10 21:00:00 12.3 7 Sur 18 Norte 0 -- -- 78
2017-11-10 20:00:00 15.1 15 Norte 24 Nordeste 0 -- -- 68
2017-11-10 19:00:00 13.8 5 Este 18 Este 0 -- -- 71
2017-11-10 18:00:00 14.2 6 Nordeste 31 Norte 0 -- -- 70
2017-11-10 17:00:00 15 20 Norte 42 Norte 0 -- -- 70
2017-11-10 16:00:00 15 17 Nordeste 34 Norte 0 -- -- 67
2017-11-10 15:00:00 15.2 18 Nordeste 38 Nordeste 0 -- -- 68
2017-11-10 14:00:00 14.5 22 Nordeste 43 Nordeste 0 -- -- 70
2017-11-10 13:00:00 14.2 23 Nordeste 47 Nordeste 0 -- -- 73
2017-11-10 12:00:00 13.8 22 Este 49 Este 0 -- -- 77
2017-11-10 11:00:00 11.3 10 Sudoeste 36 Noroeste 0 -- -- 94
2017-11-10 10:00:00 12.4 6 Este 32 Norte 5 -- -- 96
2017-11-10 09:00:00 9.5 12 Sudeste 29 Noroeste 7.6 -- -- 97
2017-11-10 08:00:00 11 23 Norte 73 Norte 2 -- -- 89
2017-11-10 07:00:00 13.4 17 Nordeste 46 Nordeste 0 -- -- 75
2017-11-10 06:00:00 13.7 29 Nordeste 53 Nordeste 0 -- -- 75
2017-11-10 05:00:00 13.3 21 Nordeste 48 Nordeste 0 -- -- 76
2017-11-10 04:00:00 13.2 30 Nordeste 45 Nordeste 0 -- -- 75
2017-11-10 03:00:00 12.4 18 Nordeste 50 Nordeste 0 -- -- 77
2017-11-10 02:00:00 11.4 11 Este 26 Sudeste 0.2 -- -- 94
2017-11-10 01:00:00 9.7 9 Sudeste 22 Este 0.6 -- -- 96
2017-11-10 00:00:00 9.8 8 Sur 27 Sudoeste 2.6 -- -- 96
2017-11-09 23:00:00 9.8 13 Sudoeste 36 Oeste 4.6 -- -- 94
2017-11-09 22:00:00 11.2 11 Sudoeste 35 Noroeste 0 -- -- 90
2017-11-09 21:00:00 10.5 12 Sur 18 Sur 0 -- -- 86
2017-11-09 20:00:00 10.5 7 Sur 12 Sur 0 -- -- 87
2017-11-09 19:00:00 10.9 5 Sur 13 Sur 0 -- -- 87
2017-11-09 18:00:00 10.4 6 Sur 12 Sur 0 -- -- 83
2017-11-09 17:00:00 12.4 6 Sur 15 Norte 0 -- -- 74
2017-11-09 16:00:00 14.1 6 Nordeste 18 Noroeste 0 -- -- 69
2017-11-09 15:00:00 13.3 13 Nordeste 26 Norte 0 -- -- 74
2017-11-09 14:00:00 13.3 11 Nordeste 20 Norte 0 -- -- 76
2017-11-09 13:00:00 13.9 6 Nordeste 13 Este 0 -- -- 75
2017-11-09 12:00:00 12.8 6 Nordeste 18 Sur 0 -- -- 74
2017-11-09 11:00:00 12.6 8 Sudeste 26 Norte 0.4 -- -- 83
2017-11-09 10:00:00 10.7 15 Norte 53 Noroeste 0.4 -- -- 87
2017-11-09 09:00:00 10.2 7 Sur 19 Sudeste 0.6 -- -- 97
2017-11-09 08:00:00 9.7 10 Sur 20 Sur 0.8 -- -- 99
2017-11-09 07:00:00 10.2 7 Sudeste 15 Este 0 -- -- 98
2017-11-09 06:00:00 10.3 7 Sur 24 Oeste 2.8 -- -- 94
2017-11-09 05:00:00 11.5 11 Sudeste 29 Sudeste 0.2 -- -- 82
2017-11-09 04:00:00 10.9 10 Sur 19 Sur 0.2 -- -- 91
2017-11-09 03:00:00 10.2 8 Sur 28 Sudeste 0.4 -- -- 91
2017-11-09 02:00:00 11 12 Sur 33 Sur 1 -- -- 85
2017-11-09 01:00:00 12.7 6 Sudeste 19 Sudeste 0 -- -- 76
2017-11-09 00:00:00 12.4 11 Sudeste 42 Nordeste 0 -- -- 79
2017-11-08 23:00:00 13.8 22 Nordeste 37 Norte 0 -- -- 87
2017-11-08 22:00:00 14.8 19 Norte 33 Norte 0 -- -- 80
2017-11-08 21:00:00 15.2 22 Norte 44 Norte 0 -- -- 72
2017-11-08 20:00:00 15.7 18 Noroeste 38 Norte 0 -- -- 56
2017-11-08 19:00:00 15.1 13 Noroeste 30 Norte 0 -- -- 61
2017-11-08 18:00:00 14.9 15 Noroeste 30 Norte 0 -- -- 66
2017-11-08 17:00:00 14.8 12 Noroeste 24 Noroeste 0 -- -- 67
2017-11-08 16:00:00 15.4 8 Noroeste 28 Noroeste 0 -- -- 65
2017-11-08 15:00:00 15.1 11 Noroeste 27 Norte 0 -- -- 67
2017-11-08 14:00:00 15.1 13 Noroeste 30 Noroeste 0 -- -- 67
2017-11-08 13:00:00 15.1 13 Noroeste 41 Norte 0 -- -- 65
2017-11-08 12:00:00 15.2 17 Noroeste 38 Norte 0 -- -- 69
2017-11-08 11:00:00 15.6 23 Norte 40 Norte 0 -- -- 65
2017-11-08 10:00:00 16.1 25 Norte 45 Norte 0 -- -- 70
2017-11-08 09:00:00 16.6 16 Noroeste 31 Noroeste 0 -- -- 68
2017-11-08 08:00:00 15.9 19 Norte 36 Noroeste 0 -- -- 70
2017-11-08 07:00:00 15.9 12 Noroeste 31 Norte 0 -- -- 66
2017-11-08 06:00:00 15.9 21 Norte 27 Noroeste 0 -- -- 66
2017-11-08 05:00:00 13.3 12 Sur 18 Sur 0 -- -- 62
2017-11-08 04:00:00 13.3 12 Sur 17 Sur 0 -- -- 59
2017-11-08 03:00:00 12.2 12 Sur 16 Sur 0 -- -- 63
2017-11-08 02:00:00 11.9 12 Sur 17 Sudoeste 0 -- -- 65
2017-11-08 01:00:00 12.4 13 Sur 27 Sudoeste 0 -- -- 65
2017-11-08 00:00:00 13.6 14 Sur 27 Sur 0 -- -- 59
2017-11-07 23:00:00 12.6 13 Sur 21 Sur 0 -- -- 63
2017-11-07 22:00:00 12.1 13 Sur 21 Sudoeste 0 -- -- 61
2017-11-07 21:00:00 12.6 12 Sur 23 Sur 0 -- -- 58
2017-11-07 20:00:00 12.4 12 Sur 21 Sudoeste 0 -- -- 58
2017-11-07 19:00:00 13.2 10 Sudoeste 20 Sur 0 -- -- 55
2017-11-07 18:00:00 14.1 9 Oeste 21 Noroeste 0 -- -- 50
2017-11-07 17:00:00 14 4 Oeste 14 Noroeste 0 -- -- 55
2017-11-07 16:00:00 15.3 6 Oeste 20 Noroeste 0 -- -- 49
2017-11-07 15:00:00 15.3 9 Noroeste 22 Norte 0 -- -- 49
2017-11-07 14:00:00 15.1 8 Noroeste 25 Norte 0 -- -- 49
2017-11-07 13:00:00 14.4 14 Norte 32 Norte 0 -- -- 61
2017-11-07 12:00:00 15 11 Norte 23 Noroeste 0 -- -- 57
2017-11-07 11:00:00 14.2 12 Noroeste 27 Noroeste 0 -- -- 57
2017-11-07 10:00:00 14.3 3 Sudoeste 22 Noroeste 0 -- -- 57
2017-11-07 09:00:00 13 5 Sudoeste 15 Norte 0 -- -- 60
2017-11-07 08:00:00 13.2 5 Oeste 19 Noroeste 0 -- -- 59
2017-11-07 07:00:00 12.8 6 Oeste 24 Noroeste 0 -- -- 65
2017-11-07 06:00:00 13.8 7 Noroeste 22 Oeste 0 -- -- 60
2017-11-07 05:00:00 14.2 9 Noroeste 19 Noroeste 0 -- -- 59
2017-11-07 04:00:00 11.9 7 Sur 17 Sudeste 0 -- -- 68
2017-11-07 03:00:00 13.4 6 Sudeste 17 Oeste 0 -- -- 60
2017-11-07 02:00:00 13.2 6 Sur 12 Este 0 -- -- 63
2017-11-07 01:00:00 13.8 5 Sudeste 34 Noroeste 0 -- -- 61
2017-11-07 00:00:00 15.3 19 Norte 31 Noroeste 0 -- -- 53
2017-11-06 23:00:00 15.3 21 Norte 40 Noroeste 0 -- -- 57
2017-11-06 22:00:00 15.9 24 Norte 39 Norte 0 -- -- 55
2017-11-06 21:00:00 15.9 23 Norte 43 Norte 0 -- -- 45
2017-11-06 20:00:00 16 27 Noroeste 43 Noroeste 0 -- -- 42
2017-11-06 19:00:00 15.8 30 Norte 46 Noroeste 0 -- -- 42
2017-11-06 18:00:00 15.7 29 Noroeste 47 Noroeste 0 -- -- 43
2017-11-06 17:00:00 15.9 30 Norte 55 Norte 0 -- -- 45
2017-11-06 16:00:00 16 31 Norte 49 Norte 0 -- -- 40
2017-11-06 15:00:00 15.8 33 Norte 56 Noroeste 0 -- -- 47
2017-11-06 14:00:00 15.9 35 Norte 63 Noroeste 0 -- -- 47
2017-11-06 13:00:00 15.8 40 Norte 58 Norte 0 -- -- 48
2017-11-06 12:00:00 15.2 35 Norte 59 Noroeste 0 -- -- 56
2017-11-06 11:00:00 15.1 36 Norte 60 Noroeste 0 -- -- 58
2017-11-06 10:00:00 15.2 35 Norte 66 Norte 0 -- -- 56
2017-11-06 09:00:00 15.4 35 Norte 70 Noroeste 0 -- -- 56
2017-11-06 08:00:00 15.2 35 Norte 54 Norte 0 -- -- 64
2017-11-06 07:00:00 14.7 29 Norte 49 Noroeste 0 -- -- 71
2017-11-06 06:00:00 15.1 26 Norte 42 Norte 0 -- -- 73
2017-11-06 05:00:00 13.7 6 Sudeste 42 Noroeste 0 -- -- 80
2017-11-06 04:00:00 15.3 20 Norte 45 Norte 0 -- -- 79
2017-11-06 03:00:00 15.4 25 Norte 52 Noroeste 0 -- -- 72
2017-11-06 02:00:00 15.6 37 Norte 55 Noroeste 0 -- -- 74
2017-11-06 01:00:00 16.1 35 Norte 52 Norte 0 -- -- 71
2017-11-06 00:00:00 16.3 29 Norte 60 Norte 0 -- -- 71
2017-11-05 23:00:00 16.6 32 Norte 49 Noroeste 0 -- -- 70
2017-11-05 22:00:00 17 31 Norte 55 Noroeste 0 -- -- 67
2017-11-05 21:00:00 17.3 28 Norte 43 Noroeste 0 -- -- 65
2017-11-05 20:00:00 17.3 21 Norte 43 Noroeste 0 -- -- 65
2017-11-05 19:00:00 17.6 20 Norte 32 Noroeste 0 -- -- 70
2017-11-05 18:00:00 17.5 21 Norte 37 Noroeste 0 -- -- 71
2017-11-05 17:00:00 17.6 22 Noroeste 39 Norte 0 -- -- 71
2017-11-05 16:00:00 17.7 24 Norte 43 Norte 0 -- -- 73
2017-11-05 15:00:00 17.7 28 Norte 40 Norte 0 -- -- 79
2017-11-05 14:00:00 18.1 12 Noroeste 26 Noroeste 0 -- -- 79
2017-11-05 13:00:00 17.9 13 Noroeste 28 Norte 0 -- -- 78
2017-11-05 12:00:00 18 9 Noroeste 24 Noroeste 0 -- -- 76
2017-11-05 11:00:00 17.9 13 Noroeste 30 Norte 0 -- -- 80
2017-11-05 10:00:00 18 12 Noroeste 34 Noroeste 0 -- -- 78
2017-11-05 09:00:00 18 31 Norte 50 Norte 0 -- -- 76
2017-11-05 08:00:00 18.2 25 Norte 41 Norte 0 -- -- 74
2017-11-05 07:00:00 18.5 28 Norte 50 Noroeste 0 -- -- 70
2017-11-05 06:00:00 18.9 16 Norte 27 Noroeste 0 -- -- 75
2017-11-05 05:00:00 18.8 13 Norte 31 Noroeste 0 -- -- 73
2017-11-05 04:00:00 19.2 9 Oeste 23 Oeste 0 -- -- 76
2017-11-05 03:00:00 19.2 12 Sudoeste 28 Oeste 0 -- -- 72
2017-11-05 02:00:00 19.5 12 Oeste 33 Sudoeste 0 -- -- 73
2017-11-05 01:00:00 19 12 Noroeste 38 Norte 0 -- -- 80
2017-11-05 00:00:00 19.7 14 Sudoeste 33 Sudoeste 0 -- -- 71
2017-11-04 23:00:00 19.1 12 Sudoeste 32 Sur 0 -- -- 70
2017-11-04 22:00:00 17.9 13 Sudoeste 27 Sudoeste 0 -- -- 83
2017-11-04 21:00:00 17.9 12 Sudoeste 24 Sur 0 -- -- 97
2017-11-04 20:00:00 17.2 10 Sudoeste 19 Sudoeste 1.6 -- -- 96
2017-11-04 19:00:00 19.5 6 Sudoeste 18 Sur 0.2 -- -- 90
2017-11-04 18:00:00 19.6 6 Sudoeste 17 Sudoeste 0 -- -- 82
2017-11-04 17:00:00 20.9 6 Sudoeste 24 Oeste 0 -- -- 79
2017-11-04 16:00:00 21.7 11 Oeste 27 Sudoeste 0 -- -- 77
2017-11-04 15:00:00 21.3 16 Sudoeste 30 Sudoeste 0 -- -- 85
2017-11-04 14:00:00 21.8 0 Calma 6 Noroeste 0 -- -- 84
2017-11-04 13:00:00 21.9 3 Noroeste 9 Noroeste 0 -- -- 83
2017-11-04 12:00:00 21.2 6 Oeste 18 Sudoeste 0 -- -- 84
2017-11-04 11:00:00 21 8 Oeste 17 Sudoeste 0 -- -- 81
2017-11-04 10:00:00 20.7 2 Sudoeste 12 Sur 0 -- -- 78
2017-11-04 09:00:00 18.7 5 Sur 19 Sudeste 0 -- -- 83
2017-11-04 08:00:00 17.1 6 Sur 10 Sur 0 -- -- 93
2017-11-04 07:00:00 17.5 8 Sur 12 Sur 0 -- -- 97
2017-11-04 06:00:00 16.7 7 Sur 11 Sudoeste 0 -- -- 94
2017-11-04 05:00:00 18.8 9 Sudoeste 25 Nordeste 0 -- -- 86
2017-11-04 04:00:00 18.9 8 Sudoeste 28 Nordeste 0 -- -- 87
2017-11-04 03:00:00 18.3 11 Nordeste 21 Norte 0 -- -- 93
2017-11-04 02:00:00 16.9 12 Sur 16 Sur 0 -- -- 94
2017-11-04 01:00:00 17.6 10 Sudoeste 17 Oeste 0 -- -- 92
2017-11-04 00:00:00 17.9 5 Sudoeste 15 Sudeste 0 -- -- 93
2017-11-03 23:00:00 17.2 9 Sudoeste 16 Sudeste 0 -- -- 97
2017-11-03 22:00:00 17 7 Sudeste 13 Sudeste 0 -- -- 100
2017-11-03 21:00:00 16.6 7 Sudoeste 13 Sur 0 -- -- 99
2017-11-03 20:00:00 16.8 6 Sur 13 Sur 0 -- -- 97
2017-11-03 19:00:00 16.5 5 Sur 13 Sur 0 -- -- 96
2017-11-03 18:00:00 17.1 6 Sur 9 Sur 0 -- -- 92
2017-11-03 17:00:00 19.9 3 Nordeste 9 Nordeste 0 -- -- 79
2017-11-03 16:00:00 19.7 6 Nordeste 11 Norte 0 -- -- 80
2017-11-03 15:00:00 21 4 Norte 13 Nordeste 0 -- -- 77
2017-11-03 14:00:00 20 9 Nordeste 16 Nordeste 0 -- -- 80
2017-11-03 13:00:00 19.5 5 Norte 11 Norte 0 -- -- 81
2017-11-03 12:00:00 20 6 Nordeste 12 Norte 0 -- -- 81
2017-11-03 11:00:00 20.7 3 Sudoeste 13 Sudoeste 0 -- -- 76
2017-11-03 10:00:00 17 10 Sur 13 Sur 0 -- -- 85
2017-11-03 09:00:00 15.7 8 Sur 16 Sur 0 -- -- 89
2017-11-03 08:00:00 14.4 9 Sur 13 Sudeste 0 -- -- 90
2017-11-03 07:00:00 14.1 9 Sur 14 Sur 0 -- -- 92
2017-11-03 06:00:00 14.2 8 Sur 16 Sur 0 -- -- 93
2017-11-03 05:00:00 14.4 10 Sur 13 Sur 0 -- -- 94
2017-11-03 04:00:00 15.1 7 Sudeste 13 Sur 0 -- -- 93
2017-11-03 03:00:00 14.3 10 Sur 14 Sur 0 -- -- 94
2017-11-03 02:00:00 14.6 11 Sur 14 Sur 0 -- -- 96
2017-11-03 01:00:00 14.7 11 Sur 19 Sur 0 -- -- 96
2017-11-03 00:00:00 15 9 Sur 15 Sur 0 -- -- 96
2017-11-02 23:00:00 15.4 10 Sur 13 Sur 0 -- -- 96
2017-11-02 22:00:00 15.9 6 Sur 10 Sur 0 -- -- 91
2017-11-02 21:00:00 16.2 6 Sur 14 Sur 0 -- -- 93
2017-11-02 20:00:00 16.4 6 Sur 13 Sur 0 -- -- 94
2017-11-02 19:00:00 16.5 8 Sur 15 Sur 0 -- -- 92
2017-11-02 18:00:00 17.1 9 Sur 13 Sur 0 -- -- 83
2017-11-02 17:00:00 19.7 3 Este 10 Nordeste 0 -- -- 76
2017-11-02 16:00:00 20.4 8 Nordeste 14 Nordeste 0 -- -- 74
2017-11-02 15:00:00 20.4 9 Norte 16 Nordeste 0 -- -- 76
2017-11-02 14:00:00 21 6 Nordeste 13 Nordeste 0 -- -- 72
2017-11-02 13:00:00 21.1 3 Norte 9 Noroeste 0 -- -- 68
2017-11-02 12:00:00 21.2 2 Norte 10 Sudoeste 0 -- -- 69
2017-11-02 11:00:00 20.6 5 Sur 9 Sur 0 -- -- 76
2017-11-02 10:00:00 18.3 4 Sur 9 Sur 0 -- -- 83
2017-11-02 09:00:00 16.8 4 Sur 12 Sur 0 -- -- 91
2017-11-02 08:00:00 15.1 6 Sur 12 Sur 0 -- -- 91
2017-11-02 07:00:00 14.7 9 Sur 12 Sur 0 -- -- 90
2017-11-02 06:00:00 15.3 8 Sur 16 Sur 0 -- -- 87
2017-11-02 05:00:00 14.9 5 Sur 10 Sur 0 -- -- 87
2017-11-02 04:00:00 15 7 Sur 10 Sur 0 -- -- 88
2017-11-02 03:00:00 15.8 6 Sur 15 Sur 0 -- -- 86
2017-11-02 02:00:00 15.7 6 Sur 12 Sur 0 -- -- 86
2017-11-02 01:00:00 15.9 5 Sur 13 Sur 0 -- -- 84
2017-11-02 00:00:00 16.4 8 Sur 17 Sur 0 -- -- 82
2017-11-01 23:00:00 16 6 Sur 9 Sur 0 -- -- 85
2017-11-01 22:00:00 15.5 6 Sur 10 Sur 0 -- -- 84
2017-11-01 21:00:00 15.8 7 Sur 13 Sudeste 0 -- -- 83
2017-11-01 20:00:00 17.5 6 Sudeste 17 Sudeste 0 -- -- 74
2017-11-01 19:00:00 17.3 9 Sudeste 15 Sudeste 0 -- -- 79
2017-11-01 18:00:00 16.4 8 Sur 11 Sur 0 -- -- 81
2017-11-01 17:00:00 18.6 6 Sur 13 Nordeste 0 -- -- 75
2017-11-01 16:00:00 20.1 5 Norte 10 Norte 0 -- -- 71
2017-11-01 15:00:00 20.7 4 Norte 10 Norte 0 -- -- 69
2017-11-01 14:00:00 20.1 5 Norte 12 Norte 0 -- -- 70
2017-11-01 13:00:00 19.6 6 Norte 12 Nordeste 0 -- -- 72
2017-11-01 12:00:00 19.3 5 Nordeste 10 Nordeste 0 -- -- 75
2017-11-01 11:00:00 19.3 3 Nordeste 7 Nordeste 0 -- -- 72
2017-11-01 10:00:00 18.2 2 Sur 8 Sudeste 0 -- -- 75
2017-11-01 09:00:00 16.3 6 Sur 10 Sur 0 -- -- 88
2017-11-01 08:00:00 14.6 6 Sur 12 Sudeste 0 -- -- 89
2017-11-01 07:00:00 15 8 Sur 13 Sudeste 0 -- -- 89
2017-11-01 06:00:00 15.2 8 Sur 13 Sudeste 0 -- -- 90
2017-11-01 05:00:00 15.3 9 Sur 13 Sudeste 0 -- -- 92
2017-11-01 04:00:00 15.2 8 Sur 13 Sur 0 -- -- 92
2017-11-01 03:00:00 15.2 8 Sur 12 Sudeste 0 -- -- 92
2017-11-01 02:00:00 15.5 8 Sur 14 Sudeste 0 -- -- 88
2017-11-01 01:00:00 15.6 8 Sur 14 Este 0 -- -- 85
2017-11-01 00:00:00 15.8 8 Sudeste 15 Sudeste 0 -- -- 79
2017-10-31 23:00:00 15.6 7 Sudeste 12 Sudeste 0 -- -- 78
2017-10-31 22:00:00 15.4 7 Sudeste 13 Sudeste 0 -- -- 73
2017-10-31 21:00:00 15.3 9 Sudeste 15 Sudeste 0 -- -- 71
2017-10-31 20:00:00 15.3 8 Sudeste 13 Sudeste 0 -- -- 85
2017-10-31 19:00:00 16 6 Sudeste 14 Sudeste 0 -- -- 85
2017-10-31 18:00:00 16.8 7 Sudeste 18 Norte 0 -- -- 81
2017-10-31 17:00:00 18.5 10 Nordeste 26 Nordeste 0 -- -- 75
2017-10-31 16:00:00 18.7 13 Nordeste 29 Nordeste 0 -- -- 73
2017-10-31 15:00:00 19 14 Nordeste 24 Nordeste 0 -- -- 73
2017-10-31 14:00:00 18.7 6 Nordeste 22 Nordeste 0 -- -- 74
2017-10-31 13:00:00 18.9 13 Nordeste 27 Nordeste 0 -- -- 75
2017-10-31 12:00:00 18.9 6 Nordeste 12 Norte 0 -- -- 71
2017-10-31 11:00:00 18.9 2 Oeste 8 Nordeste 0 -- -- 71
2017-10-31 10:00:00 17.9 5 Nordeste 14 Nordeste 0 -- -- 74
2017-10-31 09:00:00 16.7 4 Sur 10 Sur 0 -- -- 84
2017-10-31 08:00:00 15 4 Sur 16 Sudeste 0 -- -- 85
2017-10-31 07:00:00 14.6 8 Sur 10 Sur 0 -- -- 88
2017-10-31 06:00:00 14.5 6 Sur 12 Sur 0 -- -- 90
2017-10-31 05:00:00 14.8 8 Sur 12 Sur 0 -- -- 88
2017-10-31 04:00:00 15.1 6 Sur 19 Este 0 -- -- 86
2017-10-31 03:00:00 16.5 8 Sudeste 23 Sudeste 0 -- -- 83
2017-10-31 02:00:00 16.5 8 Sudeste 21 Sudeste 0 -- -- 85
2017-10-31 01:00:00 16.9 12 Sudeste 21 Sudeste 0 -- -- 86
2017-10-31 00:00:00 15.7 6 Sur 12 Sur 0 -- -- 91
2017-10-30 23:00:00 16.9 3 Este 14 Sudeste 0 -- -- 86
2017-10-30 22:00:00 17.1 4 Este 13 Este 0 -- -- 86
2017-10-30 21:00:00 16.6 8 Sudeste 13 Sudeste 0 -- -- 89
2017-10-30 20:00:00 17.4 5 Sudeste 14 Este 0 -- -- 88
2017-10-30 19:00:00 17 6 Sudeste 14 Sudeste 0 -- -- 85
2017-10-30 18:00:00 16.9 7 Sur 10 Sur 0 -- -- 85
2017-10-30 17:00:00 19.4 5 Norte 11 Norte 0 -- -- 76
2017-10-30 16:00:00 19.8 6 Norte 11 Norte 0 -- -- 75
2017-10-30 15:00:00 19 7 Norte 12 Norte 0 -- -- 80
2017-10-30 14:00:00 19 6 Norte 12 Noroeste 0 -- -- 78
2017-10-30 13:00:00 18.9 3 Sudoeste 8 Sudoeste 0 -- -- 82
2017-10-30 12:00:00 19 4 Sur 5 Sur 0 -- -- 80
2017-10-30 11:00:00 19.2 4 Sudeste 9 Sur 0 -- -- 80
2017-10-30 10:00:00 16.8 8 Sur 13 Sur 0 -- -- 92
2017-10-30 09:00:00 16.4 10 Sur 14 Sur 0 -- -- 92
2017-10-30 08:00:00 15.3 11 Sur 14 Sur 0 -- -- 95
2017-10-30 07:00:00 15.6 9 Sur 15 Sur 0 -- -- 96
2017-10-30 06:00:00 14.9 12 Sur 17 Sur 0 -- -- 96
2017-10-30 05:00:00 14.8 11 Sur 15 Sur 0 -- -- 93
2017-10-30 04:00:00 14.6 12 Sur 17 Sur 0 -- -- 91
2017-10-30 03:00:00 14.8 12 Sur 14 Sur 0 -- -- 90
2017-10-30 02:00:00 14.8 10 Sur 14 Sur 0 -- -- 90
2017-10-30 01:00:00 14.8 10 Sur 14 Sur 0 -- -- 92
2017-10-30 00:00:00 15.2 9 Sur 14 Sur 0 -- -- 95
2017-10-29 23:00:00 15.7 10 Sur 13 Sur 0 -- -- 96
2017-10-29 22:00:00 16.1 10 Sur 18 Sudoeste 0 -- -- 95
2017-10-29 21:00:00 16.8 10 Sudoeste 15 Sudoeste 0 -- -- 93
2017-10-29 20:00:00 17.1 9 Sudoeste 16 Sudoeste 0 -- -- 92
2017-10-29 19:00:00 17.7 10 Sudoeste 17 Sur 0 -- -- 89
2017-10-29 18:00:00 18 10 Sudoeste 13 Sudoeste 0 -- -- 89
2017-10-29 17:00:00 20.6 4 Sudoeste 12 Oeste 0 -- -- 80
2017-10-29 16:00:00 20.8 6 Noroeste 16 Norte 0 -- -- 81
2017-10-29 15:00:00 20.6 9 Noroeste 17 Oeste 0 -- -- 85
2017-10-29 14:00:00 20.8 9 Oeste 16 Oeste 0 -- -- 84
2017-10-29 13:00:00 20.8 6 Noroeste 10 Noroeste 0 -- -- 84
2017-10-29 12:00:00 20.9 3 Norte 6 Noroeste 0 -- -- 82
2017-10-29 11:00:00 20.2 3 Norte 6 Nordeste 0 -- -- 84
2017-10-29 10:00:00 20.4 3 Este 8 Nordeste 0 -- -- 88
2017-10-29 09:00:00 18.9 4 Nordeste 12 Norte 0 -- -- 93
2017-10-29 08:00:00 17.3 5 Sur 13 Sur 0 -- -- 96
2017-10-29 07:00:00 16.7 8 Sur 12 Sur 0 -- -- 94
2017-10-29 06:00:00 18.6 4 Sur 14 Norte 0 -- -- 83
2017-10-29 05:00:00 19.2 9 Noroeste 17 Norte 0 -- -- 85
2017-10-29 04:00:00 19.4 5 Noroeste 18 Sudoeste 0 -- -- 89
2017-10-29 03:00:00 18.7 9 Sudoeste 14 Sudoeste 0 -- -- 90
2017-10-29 02:00:00 19 7 Sudoeste 15 Sudoeste 0 -- -- 86
2017-10-29 01:00:00 19 9 Sudoeste 21 Sur 0 -- -- 85
2017-10-29 00:00:00 18.7 11 Sudoeste 22 Sudoeste 0 -- -- 87
2017-10-28 23:00:00 18.3 12 Sudoeste 21 Sudoeste 0 -- -- 86
2017-10-28 22:00:00 16.5 10 Sur 14 Sur 0 -- -- 90
2017-10-28 21:00:00 17.3 10 Sur 23 Sudoeste 0 -- -- 91
2017-10-28 20:00:00 17.5 9 Sur 18 Sudoeste 0 -- -- 94
2017-10-28 19:00:00 17.5 9 Sur 13 Sur 0 -- -- 89
2017-10-28 18:00:00 20 8 Sur 10 Sur 0 -- -- 79
2017-10-28 17:00:00 21.2 4 Norte 12 Nordeste 0 -- -- 71
2017-10-28 16:00:00 21.2 6 Nordeste 19 Nordeste 0 -- -- 72
2017-10-28 15:00:00 21.2 11 Nordeste 22 Nordeste 0 -- -- 72
2017-10-28 14:00:00 20.9 10 Norte 20 Nordeste 0 -- -- 74
2017-10-28 13:00:00 20.6 8 Nordeste 18 Nordeste 0 -- -- 75
2017-10-28 12:00:00 20.5 8 Nordeste 15 Nordeste 0 -- -- 80
2017-10-28 11:00:00 20 4 Sudeste 12 Nordeste 0 -- -- 87
2017-10-28 10:00:00 19.1 9 Este 27 Norte 0.2 -- -- 94
2017-10-28 09:00:00 18.5 9 Sudeste 13 Este 0 -- -- 100
2017-10-28 08:00:00 18 8 Sudeste 19 Sudoeste 0.6 -- -- 100
2017-10-28 07:00:00 18.5 12 Sudoeste 17 Sudoeste 0 -- -- 98
2017-10-28 06:00:00 17.9 8 Sur 13 Sur 0 -- -- 99
2017-10-28 05:00:00 17.3 9 Sur 15 Sur 0 -- -- 98
2017-10-28 04:00:00 17.5 6 Sur 16 Sur 0 -- -- 93
2017-10-28 03:00:00 16.8 11 Sur 15 Sur 0 -- -- 85
2017-10-28 02:00:00 16.8 11 Sur 14 Sur 0 -- -- 80
2017-10-28 01:00:00 17.1 9 Sur 15 Sur 0 -- -- 79
2017-10-28 00:00:00 17 13 Sur 18 Sur 0 -- -- 84
2017-10-27 23:00:00 17.8 10 Sur 13 Sur 0 -- -- 92
2017-10-27 22:00:00 19.2 7 Sur 15 Este 0 -- -- 84
2017-10-27 21:00:00 19.6 8 Sudeste 13 Sudeste 0 -- -- 78
2017-10-27 20:00:00 18.3 8 Sur 12 Sur 0 -- -- 64
2017-10-27 19:00:00 18.6 6 Sudeste 11 Sudeste 0 -- -- 71
2017-10-27 18:00:00 20.4 7 Sur 13 Oeste 0 -- -- 83
2017-10-27 17:00:00 21.8 9 Oeste 18 Oeste 0 -- -- 91
2017-10-27 16:00:00 22 11 Oeste 20 Oeste 0 -- -- 90
2017-10-27 15:00:00 21.7 11 Oeste 23 Sudoeste 0 -- -- 92
2017-10-27 14:00:00 21 12 Oeste 19 Oeste 0 -- -- 92
2017-10-27 13:00:00 21 8 Noroeste 14 Oeste 0 -- -- 87
2017-10-27 12:00:00 22 2 Sudoeste 8 Sur 0 -- -- 71
2017-10-27 11:00:00 19.3 4 Sur 12 Sur 0 -- -- 68
2017-10-27 10:00:00 17.7 5 Sur 13 Sur 0 -- -- 68
2017-10-27 09:00:00 16.1 7 Sur 12 Sudeste 0 -- -- 70
2017-10-27 08:00:00 15.8 8 Sur 14 Sur 0 -- -- 81
2017-10-27 07:00:00 15.5 10 Sur 13 Sur 0 -- -- 80
2017-10-27 06:00:00 15.6 10 Sur 16 Sur 0 -- -- 82
2017-10-27 05:00:00 15.9 10 Sur 14 Sur 0 -- -- 82
2017-10-27 04:00:00 15.9 10 Sur 14 Sur 0 -- -- 82
2017-10-27 03:00:00 16.2 11 Sur 15 Sur 0 -- -- 78
2017-10-27 02:00:00 16.6 6 Sur 15 Sur 0 -- -- 77
2017-10-27 01:00:00 16.6 13 Sur 15 Sur 0 -- -- 73
2017-10-27 00:00:00 17 12 Sur 15 Sur 0 -- -- 66
2017-10-26 23:00:00 16.9 10 Sur 17 Sur 0 -- -- 70
2017-10-26 22:00:00 17.2 10 Sur 16 Sur 0 -- -- 70
2017-10-26 21:00:00 17.3 13 Sur 15 Sur 0 -- -- 75
2017-10-26 20:00:00 17.2 10 Sur 18 Sur 0 -- -- 82
2017-10-26 19:00:00 18.5 6 Sur 13 Sur 0 -- -- 90
2017-10-26 18:00:00 22 7 Sur 10 Sur 0 -- -- 78
2017-10-26 17:00:00 24.3 4 Sudoeste 13 Noroeste 0 -- -- 75
2017-10-26 16:00:00 23.7 4 Norte 9 Norte 0 -- -- 75
2017-10-26 15:00:00 23.3 4 Norte 8 Norte 0 -- -- 71
2017-10-26 14:00:00 23 2 Norte 4 Norte 0 -- -- 65
2017-10-26 13:00:00 22.9 0 Calma 4 Oeste 0 -- -- 66
2017-10-26 12:00:00 22.8 0 Calma 9 Sur 0 -- -- 68
2017-10-26 11:00:00 19.4 6 Sur 12 Sur 0 -- -- 70
2017-10-26 10:00:00 17.7 10 Sur 16 Sur 0 -- -- 74
2017-10-26 09:00:00 16.5 9 Sur 14 Sur 0 -- -- 77
2017-10-26 08:00:00 16.1 9 Sur 16 Sur 0 -- -- 78
2017-10-26 07:00:00 15.9 11 Sur 14 Sur 0 -- -- 82
2017-10-26 06:00:00 16.2 11 Sur 15 Sur 0 -- -- 83
2017-10-26 05:00:00 16.2 10 Sur 14 Sur 0 -- -- 83
2017-10-26 04:00:00 16.4 9 Sur 13 Sur 0 -- -- 80
2017-10-26 03:00:00 16.6 9 Sur 14 Sur 0 -- -- 81
2017-10-26 02:00:00 16.8 10 Sur 15 Sur 0 -- -- 77
2017-10-26 01:00:00 16.7 11 Sur 15 Sur 0 -- -- 79
2017-10-26 00:00:00 16.8 10 Sur 14 Sur 0 -- -- 84